Arcen, Netherlands

9:32 AM CEST on September 17, 2014 (GMT +0200)
Swolgen Kanakker | Change Station
CLOSE
Current Station
Personal Weather Station
Location: Swolgen, LIMBURG
Elevation: 66 ft
Nearby Weather Stations

Elev 66 ft 51.49 °N, 6.12 °E | Updated 4 seconds ago

Clear
Clear
62.8 °F
Feels Like 62.8 °F
N
0.0
Wind Variable Wind from ENE
Gusts 0.0 mph

Today
High -- | Low -- °F
--% Chance of Precip.
Yesterday
High -- | Low -- °F
Precip. -- in
7:12 AM 7:45 PM
Last Quarter, 38% visible
Pressure 29.92 in
Visibility -9999.0 miles
Clouds
Dew Point 59 °F
Humidity 86%
Rainfall 0.00 in
Snow Depth Not available.
UV 1.0 out of 12
Pollen Not available.
Air Quality Not available.
Flu Activity Not available.
METAR EDLV 170720Z VRB03KT CAVOK 17/15 Q1013

More Conditions Fewer Conditions

Pressure 29.92 in
Visibility -9999.0 miles
Clouds
Dew Point 59 °F
Humidity 86%
Rainfall 0.00 in
Snow Depth Not available.
UV 1.0 out of 12
Pollen Not available.
Air Quality Not available.
Flu Activity Not available.
METAR EDLV 170720Z VRB03KT CAVOK 17/15 Q1013

More Conditions Fewer Conditions

10-Day Weather Forecast

Almanac

Astronomy

Sep. 17, 2014 Rise Set
Actual Time 7:12 AM CEST 7:45 PM CEST
Civil Twilight 6:39 AM CEST 8:18 PM CEST
Nautical Twilight 5:59 AM CEST 8:58 PM CEST
Astronomical Twilight 5:17 AM CEST 9:40 PM CEST
Moon 12:29 AM CEST 4:12 PM CEST
Length of Visible Light 13h 39m
Length of Day
12h 32m
Tomorrow will be 3m 54s shorter.
Last Quarter, 38% of the Moon is Illuminated
Today
Last Quarter
Sep 24
New
Oct 1
First Quarter
Oct 8
Full
Oct 15
Last Quarter

Yesterday's Extremes

Country Highs Country Lows

Community

WunderPhotos

Upload Photos

1,753,976 photos uploaded!

Nearby

Snow Depth

Not available.

Earthquake Activity

City Distance Mag. Time & Date
No recent earthquake activity has been reported nearby.
Minimum magnitude displayed is 2.5.

Coastal Water Temperatures

Place Temperature
No Stations Reporting

Nearby Weather Stations